< < Back
Terminal Aerodrome Forecast


Current Version              Previous Versions:   1  2  3  4  5  6  7  8  9  

Terminal Aerodrome Forecast

481
FTUS44 KMOB 260500
TAFPNS
TAF
KPNS 260520Z 2606/2706 00000KT P6SM SKC
     FM260900 11004KT P6SM SCT250
     FM261200 12005KT P6SM BKN100=



Latest METAR

215
SAUS70 KWBC 260400 RRE
MTRPNS
METAR KPNS 260353Z 35003KT 10SM CLR 06/04 A3025 RMK AO2 SLP245
T00560039


USA.gov is the U.S. government's official web portal to all federal, state and local government web resources and services.